createdAt,value
2023-01-29T00:02:21.309Z,17.50
2023-01-29T00:04:50.862Z,15.90
2023-01-29T00:07:18.948Z,14.57
2023-01-29T00:09:47.046Z,13.50
2023-01-29T00:12:15.093Z,13.83
2023-01-29T00:14:43.146Z,14.67
2023-01-29T00:17:11.392Z,13.93
2023-01-29T00:19:39.550Z,12.17
2023-01-29T00:22:09.303Z,11.90
2023-01-29T00:24:37.517Z,12.87
2023-01-29T00:27:06.384Z,12.10
2023-01-29T00:29:34.457Z,12.87
2023-01-29T00:32:02.601Z,13.83
2023-01-29T00:34:30.715Z,13.50
2023-01-29T00:37:04.787Z,14.53
2023-01-29T00:39:47.489Z,14.90
2023-01-29T00:42:34.199Z,15.00
2023-01-29T00:45:02.373Z,15.50
2023-01-29T00:47:34.553Z,16.27
2023-01-29T00:50:03.521Z,16.87
2023-01-29T00:52:31.986Z,17.13
2023-01-29T00:55:02.078Z,16.67
2023-01-29T00:57:32.724Z,17.10
2023-01-29T01:00:01.693Z,17.13
2023-01-29T01:02:47.982Z,16.13
2023-01-29T01:05:19.017Z,16.20
2023-01-29T01:07:48.357Z,15.70
2023-01-29T01:10:23.258Z,16.63
2023-01-29T01:12:57.007Z,18.27
2023-01-29T01:15:28.185Z,17.77
2023-01-29T01:17:58.588Z,16.47
2023-01-29T01:20:27.803Z,16.67
2023-01-29T01:22:56.588Z,15.97
2023-01-29T01:25:27.550Z,16.57
2023-01-29T01:27:57.300Z,17.53
2023-01-29T01:30:27.204Z,17.53
2023-01-29T01:32:55.417Z,16.77
2023-01-29T01:35:23.518Z,16.80
2023-01-29T01:37:51.695Z,14.47
2023-01-29T01:40:21.545Z,15.20
2023-01-29T01:42:52.990Z,15.77
2023-01-29T01:45:24.454Z,13.97
2023-01-29T01:47:57.624Z,14.63
2023-01-29T01:50:30.781Z,14.60
2023-01-29T01:53:04.222Z,14.83
2023-01-29T01:55:36.422Z,14.10
2023-01-29T01:58:10.064Z,13.60
2023-01-29T02:00:38.495Z,14.37
2023-01-29T02:03:25.981Z,14.90
2023-01-29T02:06:14.563Z,14.43
2023-01-29T02:09:08.012Z,13.90
2023-01-29T02:11:37.935Z,13.60
2023-01-29T02:14:08.317Z,12.80
2023-01-29T02:16:37.290Z,13.73
2023-01-29T02:19:10.605Z,13.93
2023-01-29T02:22:07.585Z,12.77
2023-01-29T02:24:57.739Z,13.33
2023-01-29T02:27:33.284Z,13.60
2023-01-29T02:30:07.285Z,13.63
2023-01-29T02:32:54.818Z,14.67
2023-01-29T02:35:29.832Z,13.47
2023-01-29T02:38:10.718Z,15.63
2023-01-29T02:40:44.262Z,15.33
2023-01-29T02:43:24.488Z,16.83
2023-01-29T02:46:02.506Z,18.80
2023-01-29T02:48:40.804Z,18.77
2023-01-29T02:51:15.227Z,19.00
2023-01-29T02:53:50.500Z,20.43
2023-01-29T02:56:22.223Z,20.10
2023-01-29T02:58:58.622Z,19.60
2023-01-29T03:01:34.270Z,17.03
2023-01-29T03:04:09.028Z,17.63
2023-01-29T03:06:42.455Z,19.10
2023-01-29T03:09:16.573Z,18.60
2023-01-29T03:11:52.897Z,19.07
2023-01-29T03:14:49.213Z,19.27
2023-01-29T03:17:21.391Z,19.53
2023-01-29T03:19:51.923Z,18.70
2023-01-29T03:22:24.872Z,18.60
2023-01-29T03:25:15.939Z,18.50
2023-01-29T03:28:08.159Z,17.53
2023-01-29T03:31:03.373Z,17.33
2023-01-29T03:33:46.961Z,17.53
2023-01-29T03:36:19.858Z,15.70
2023-01-29T03:38:47.994Z,16.07
2023-01-29T03:41:26.400Z,15.60
2023-01-29T03:44:05.736Z,15.07
2023-01-29T03:46:39.143Z,15.60
2023-01-29T03:49:16.828Z,15.07
2023-01-29T03:51:56.347Z,14.57
2023-01-29T03:54:30.821Z,15.60
2023-01-29T03:57:07.691Z,16.00
2023-01-29T03:59:43.136Z,14.93
2023-01-29T04:02:36.265Z,16.00
2023-01-29T04:05:18.531Z,16.10
2023-01-29T04:08:08.194Z,15.80
2023-01-29T04:10:40.107Z,16.23
2023-01-29T04:13:11.944Z,16.13
2023-01-29T04:15:47.262Z,16.80
2023-01-29T04:18:15.762Z,16.57
2023-01-29T04:21:08.277Z,17.17
2023-01-29T04:23:36.878Z,18.17
2023-01-29T04:26:22.409Z,18.23
2023-01-29T04:29:04.754Z,19.10
2023-01-29T04:31:37.897Z,20.20
2023-01-29T04:34:14.361Z,19.73
2023-01-29T04:36:57.425Z,18.77
2023-01-29T04:39:31.690Z,20.77
2023-01-29T04:42:08.263Z,20.97
2023-01-29T04:44:42.838Z,21.37
2023-01-29T04:47:22.551Z,22.60
2023-01-29T04:49:58.038Z,22.03
2023-01-29T04:52:35.253Z,22.07
2023-01-29T04:55:10.279Z,23.03
2023-01-29T04:57:47.848Z,22.17
2023-01-29T05:00:20.281Z,22.30
2023-01-29T05:02:49.946Z,19.97
2023-01-29T05:05:21.034Z,19.13
2023-01-29T05:07:51.545Z,17.20
2023-01-29T05:10:23.065Z,17.47
2023-01-29T05:12:57.707Z,15.63
2023-01-29T05:15:31.604Z,16.23
2023-01-29T05:18:03.148Z,15.77
2023-01-29T05:20:35.131Z,14.97
2023-01-29T05:23:05.167Z,15.80
2023-01-29T05:25:35.455Z,15.93
2023-01-29T05:28:05.817Z,15.40
2023-01-29T05:30:35.914Z,17.30
2023-01-29T05:33:05.127Z,16.27
2023-01-29T05:35:33.242Z,16.67
2023-01-29T05:38:01.340Z,17.57
2023-01-29T05:40:31.036Z,16.77
2023-01-29T05:42:59.187Z,15.77
2023-01-29T05:45:27.493Z,16.80
2023-01-29T05:47:58.102Z,16.20
2023-01-29T05:50:27.457Z,17.17
2023-01-29T05:52:59.600Z,16.33
2023-01-29T05:55:29.424Z,16.23
2023-01-29T05:57:59.249Z,16.17
2023-01-29T06:00:27.591Z,14.67
2023-01-29T06:02:56.577Z,13.30
2023-01-29T06:05:24.697Z,12.70
2023-01-29T06:07:52.893Z,13.37
2023-01-29T06:10:21.318Z,12.60
2023-01-29T06:12:49.477Z,11.97
2023-01-29T06:15:19.851Z,12.30
2023-01-29T06:17:48.001Z,12.37
2023-01-29T06:20:16.304Z,11.73
2023-01-29T06:22:44.661Z,11.27
2023-01-29T06:25:13.240Z,11.03
2023-01-29T06:27:41.387Z,11.20
2023-01-29T06:30:10.892Z,12.47
2023-01-29T06:32:40.620Z,11.30
2023-01-29T06:35:10.229Z,10.83
2023-01-29T06:37:38.660Z,10.27
2023-01-29T06:40:07.760Z,10.27
2023-01-29T06:42:36.513Z,10.07
2023-01-29T06:45:05.055Z,9.50
2023-01-29T06:47:33.115Z,10.00
2023-01-29T06:50:02.681Z,9.20
2023-01-29T06:52:30.722Z,10.00
2023-01-29T06:54:59.117Z,9.47
2023-01-29T06:57:30.241Z,9.97
2023-01-29T06:59:58.345Z,9.07
2023-01-29T07:02:26.546Z,9.17
2023-01-29T07:04:54.734Z,9.07
2023-01-29T07:07:24.365Z,9.77
2023-01-29T07:09:52.530Z,9.67
2023-01-29T07:12:20.576Z,9.00
2023-01-29T07:14:48.658Z,10.63
2023-01-29T07:17:16.745Z,9.60
2023-01-29T07:19:44.798Z,9.63
2023-01-29T07:22:12.943Z,8.10
2023-01-29T07:24:42.481Z,7.70
2023-01-29T07:27:10.562Z,8.37
2023-01-29T07:29:38.615Z,8.33
2023-01-29T07:32:08.048Z,8.17
2023-01-29T07:34:36.154Z,7.30
2023-01-29T07:37:06.152Z,7.80
2023-01-29T07:39:34.434Z,7.43
2023-01-29T07:42:03.910Z,7.87
2023-01-29T07:44:32.048Z,8.63
2023-01-29T07:47:00.209Z,7.50
2023-01-29T07:49:28.286Z,7.90
2023-01-29T07:51:56.370Z,7.57
2023-01-29T07:54:24.544Z,7.40
2023-01-29T07:56:52.664Z,7.17
2023-01-29T07:59:22.123Z,6.87
2023-01-29T08:01:50.395Z,6.87
2023-01-29T08:04:18.497Z,6.50
2023-01-29T08:06:46.554Z,5.90
2023-01-29T08:09:14.790Z,6.23
2023-01-29T08:11:42.958Z,7.20
2023-01-29T08:14:11.072Z,7.03
2023-01-29T08:16:40.645Z,7.47
2023-01-29T08:19:08.972Z,7.23
2023-01-29T08:21:37.055Z,6.80
2023-01-29T08:24:05.443Z,6.87
2023-01-29T08:26:34.057Z,5.67
2023-01-29T08:29:02.160Z,5.27
2023-01-29T08:31:30.322Z,5.93
2023-01-29T08:34:00.049Z,6.63
2023-01-29T08:36:28.324Z,6.80
2023-01-29T08:38:56.336Z,6.30
2023-01-29T08:41:24.536Z,6.43
2023-01-29T08:43:52.606Z,6.40
2023-01-29T08:46:21.038Z,7.60
2023-01-29T08:48:49.076Z,6.77
2023-01-29T08:51:18.749Z,6.73
2023-01-29T08:53:46.946Z,7.00
2023-01-29T08:56:16.393Z,7.37
2023-01-29T08:58:44.807Z,6.93
2023-01-29T09:01:15.037Z,7.60
2023-01-29T09:03:44.543Z,6.93
2023-01-29T09:06:14.444Z,6.87
2023-01-29T09:08:43.920Z,6.90
2023-01-29T09:11:12.337Z,6.90
2023-01-29T09:13:40.492Z,7.57
2023-01-29T09:16:09.221Z,7.37
2023-01-29T09:18:37.659Z,7.73
2023-01-29T09:21:06.408Z,7.47
2023-01-29T09:23:34.790Z,7.17
2023-01-29T09:26:04.515Z,8.07
2023-01-29T09:28:32.659Z,8.00
2023-01-29T09:31:02.686Z,8.97
2023-01-29T09:33:32.488Z,9.10
2023-01-29T09:36:00.592Z,8.80
2023-01-29T09:38:29.050Z,9.43
2023-01-29T09:41:06.553Z,9.07
2023-01-29T09:43:44.504Z,9.70
2023-01-29T09:46:20.441Z,8.53
2023-01-29T09:48:53.893Z,8.83
2023-01-29T09:51:29.117Z,8.23
2023-01-29T09:54:06.372Z,9.13
2023-01-29T09:56:34.716Z,8.90
2023-01-29T09:59:04.166Z,9.53
2023-01-29T10:01:41.328Z,10.13
2023-01-29T10:04:28.762Z,9.80
2023-01-29T10:07:10.998Z,9.53
2023-01-29T10:09:58.438Z,10.23
2023-01-29T10:12:43.363Z,9.53
2023-01-29T10:15:24.849Z,10.63
2023-01-29T10:18:06.798Z,10.00
2023-01-29T10:20:47.646Z,11.10
2023-01-29T10:23:26.330Z,11.07
2023-01-29T10:25:55.309Z,11.43
2023-01-29T10:28:28.942Z,12.00
2023-01-29T10:31:02.391Z,12.00
2023-01-29T10:33:49.581Z,13.00
2023-01-29T10:36:34.359Z,13.50
2023-01-29T10:39:02.703Z,12.00
2023-01-29T10:41:50.587Z,11.37
2023-01-29T10:44:28.633Z,12.30
2023-01-29T10:47:24.208Z,12.30
2023-01-29T10:50:07.799Z,11.17
2023-01-29T10:52:44.475Z,12.00
2023-01-29T10:55:30.543Z,12.03
2023-01-29T10:58:09.452Z,12.93
2023-01-29T11:00:40.386Z,13.07
2023-01-29T11:03:27.446Z,13.40
2023-01-29T11:06:02.719Z,15.63
2023-01-29T11:08:35.592Z,14.90
2023-01-29T11:11:09.382Z,16.33
2023-01-29T11:13:43.698Z,16.43
2023-01-29T11:16:12.417Z,17.30
2023-01-29T11:18:53.045Z,17.47
2023-01-29T11:21:21.408Z,17.57
2023-01-29T11:23:49.923Z,16.73
2023-01-29T11:26:20.915Z,18.43
2023-01-29T11:28:50.871Z,18.97
2023-01-29T11:31:22.626Z,18.00
2023-01-29T11:33:55.482Z,18.03
2023-01-29T11:36:33.055Z,15.47
2023-01-29T11:39:13.519Z,16.97
2023-01-29T11:41:46.294Z,14.50
2023-01-29T11:44:29.414Z,14.70
2023-01-29T11:47:00.705Z,13.53
2023-01-29T11:49:36.406Z,14.70
2023-01-29T11:52:08.581Z,14.27
2023-01-29T11:54:40.910Z,14.80
2023-01-29T11:57:25.339Z,12.77
2023-01-29T11:59:54.926Z,13.13
2023-01-29T12:02:31.711Z,11.60
2023-01-29T12:05:04.817Z,11.63
2023-01-29T12:07:34.040Z,10.20
2023-01-29T12:10:03.488Z,10.63
2023-01-29T12:12:41.057Z,10.97
2023-01-29T12:15:22.626Z,11.87
2023-01-29T12:18:06.938Z,11.27
2023-01-29T12:20:41.383Z,10.37
2023-01-29T12:23:24.157Z,9.83
2023-01-29T12:26:01.887Z,10.10
2023-01-29T12:28:49.569Z,10.03
2023-01-29T12:31:28.327Z,10.40
2023-01-29T12:34:03.425Z,10.77
2023-01-29T12:36:39.074Z,11.17
2023-01-29T12:39:07.265Z,11.07
2023-01-29T12:41:43.324Z,9.57
2023-01-29T12:44:19.456Z,11.17
2023-01-29T12:46:53.042Z,11.27
2023-01-29T12:49:24.891Z,10.73
2023-01-29T12:52:00.247Z,10.67
2023-01-29T12:54:36.283Z,11.10
2023-01-29T12:57:10.784Z,11.70
2023-01-29T12:59:44.136Z,12.13
2023-01-29T13:02:21.582Z,12.03
2023-01-29T13:04:57.159Z,12.10
2023-01-29T13:07:32.605Z,12.90
2023-01-29T13:10:09.312Z,13.23
2023-01-29T13:12:40.922Z,11.40
2023-01-29T13:15:22.988Z,10.93
2023-01-29T13:17:54.505Z,11.30
2023-01-29T13:20:29.973Z,10.27
2023-01-29T13:23:05.255Z,11.00
2023-01-29T13:25:33.398Z,11.23
2023-01-29T13:28:01.823Z,10.63
2023-01-29T13:30:31.621Z,10.70
2023-01-29T13:33:10.507Z,11.00
2023-01-29T13:35:42.252Z,11.40
2023-01-29T13:38:26.009Z,12.00
2023-01-29T13:41:00.439Z,12.47
2023-01-29T13:43:33.079Z,12.43
2023-01-29T13:46:10.406Z,12.77
2023-01-29T13:48:43.726Z,11.87
2023-01-29T13:51:19.595Z,11.40
2023-01-29T13:53:58.255Z,11.67
2023-01-29T13:56:46.469Z,11.70
2023-01-29T13:59:25.632Z,12.37
2023-01-29T14:02:20.413Z,12.33
2023-01-29T14:04:48.492Z,12.10
2023-01-29T14:07:50.512Z,12.90
2023-01-29T14:10:22.994Z,12.80
2023-01-29T14:12:54.654Z,12.50
2023-01-29T14:15:31.651Z,13.23
2023-01-29T14:18:20.734Z,12.87
2023-01-29T14:20:55.474Z,12.47
2023-01-29T14:23:42.428Z,13.30
2023-01-29T14:26:31.641Z,12.43
2023-01-29T14:29:08.379Z,12.30
2023-01-29T14:31:44.183Z,13.20
2023-01-29T14:34:25.082Z,13.83
2023-01-29T14:36:56.354Z,12.97
2023-01-29T14:39:34.342Z,13.23
2023-01-29T14:42:17.235Z,12.83
2023-01-29T14:44:57.954Z,13.87
2023-01-29T14:48:02.105Z,13.63
2023-01-29T14:51:08.894Z,14.20
2023-01-29T14:54:02.394Z,13.30
2023-01-29T14:56:35.565Z,13.87
2023-01-29T14:59:15.830Z,14.00
2023-01-29T15:01:49.741Z,13.43
2023-01-29T15:04:22.824Z,13.70
2023-01-29T15:06:56.444Z,14.30
2023-01-29T15:09:36.672Z,14.13
2023-01-29T15:12:14.846Z,13.67
2023-01-29T15:14:50.813Z,14.37
2023-01-29T15:17:26.724Z,14.87
2023-01-29T15:19:56.768Z,13.63
2023-01-29T15:22:26.299Z,14.67
2023-01-29T15:25:07.375Z,14.47
2023-01-29T15:27:35.898Z,15.10
2023-01-29T15:30:08.178Z,14.13
2023-01-29T15:32:40.448Z,14.43
2023-01-29T15:35:11.338Z,14.47
2023-01-29T15:37:39.546Z,14.90
2023-01-29T15:40:16.361Z,14.40
2023-01-29T15:42:48.607Z,13.80
2023-01-29T15:45:27.426Z,14.10
2023-01-29T15:47:58.777Z,14.80
2023-01-29T15:50:27.111Z,14.00
2023-01-29T15:52:56.295Z,15.07
2023-01-29T15:55:25.259Z,14.53
2023-01-29T15:57:53.603Z,15.27
2023-01-29T16:00:28.708Z,14.23
2023-01-29T16:02:57.396Z,15.30
2023-01-29T16:05:29.550Z,15.53
2023-01-29T16:07:58.768Z,14.50
2023-01-29T16:10:29.860Z,15.07
2023-01-29T16:12:58.991Z,15.47
2023-01-29T16:15:33.660Z,16.07
2023-01-29T16:18:03.659Z,15.57
2023-01-29T16:20:37.619Z,14.83
2023-01-29T16:23:07.753Z,14.53
2023-01-29T16:25:40.068Z,14.60
2023-01-29T16:28:11.046Z,14.33
2023-01-29T16:30:41.562Z,14.60
2023-01-29T16:33:14.343Z,14.80
2023-01-29T16:35:43.177Z,15.13
2023-01-29T16:38:27.029Z,15.60
2023-01-29T16:41:08.278Z,15.60
2023-01-29T16:43:53.396Z,15.80
2023-01-29T16:46:38.246Z,16.07
2023-01-29T16:49:46.956Z,17.40
2023-01-29T16:52:20.061Z,17.23
2023-01-29T16:54:48.214Z,16.30
2023-01-29T16:57:19.351Z,16.57
2023-01-29T16:59:47.751Z,18.07
2023-01-29T17:02:24.936Z,17.30
2023-01-29T17:04:55.076Z,17.60
2023-01-29T17:07:23.939Z,18.47
2023-01-29T17:09:54.618Z,18.37
2023-01-29T17:12:25.442Z,18.53
2023-01-29T17:14:55.048Z,19.03
2023-01-29T17:17:30.817Z,19.57
2023-01-29T17:19:59.439Z,19.60
2023-01-29T17:22:27.431Z,19.10
2023-01-29T17:24:55.475Z,19.87
2023-01-29T17:27:24.377Z,19.70
2023-01-29T17:29:53.582Z,19.33
2023-01-29T17:32:22.616Z,20.20
2023-01-29T17:34:53.612Z,20.10
2023-01-29T17:37:21.725Z,20.70
2023-01-29T17:39:52.749Z,20.87
2023-01-29T17:42:20.779Z,21.07
2023-01-29T17:44:48.947Z,22.20
2023-01-29T17:47:17.016Z,22.23
2023-01-29T17:49:45.149Z,21.93
2023-01-29T17:52:14.648Z,21.90
2023-01-29T17:54:42.711Z,22.83
2023-01-29T17:57:11.772Z,22.47
2023-01-29T17:59:39.959Z,21.47
2023-01-29T18:02:08.783Z,21.10
2023-01-29T18:04:56.777Z,21.67
2023-01-29T18:07:26.354Z,20.40
2023-01-29T18:09:54.432Z,20.87
2023-01-29T18:12:22.522Z,20.63
2023-01-29T18:14:50.653Z,21.80
2023-01-29T18:17:22.356Z,21.10
2023-01-29T18:19:50.548Z,21.97
2023-01-29T18:22:18.696Z,21.27
2023-01-29T18:24:48.085Z,21.50
2023-01-29T18:27:16.160Z,23.23
2023-01-29T18:29:44.516Z,21.87
2023-01-29T18:32:12.882Z,21.63
2023-01-29T18:34:43.191Z,22.50
2023-01-29T18:37:12.986Z,21.90
2023-01-29T18:39:41.254Z,21.63
2023-01-29T18:42:10.652Z,21.33
2023-01-29T18:44:38.704Z,22.40
2023-01-29T18:47:06.751Z,22.63
2023-01-29T18:49:38.819Z,22.33
2023-01-29T18:52:07.331Z,21.63
2023-01-29T18:54:35.371Z,22.33
2023-01-29T18:57:13.666Z,22.53
2023-01-29T18:59:52.817Z,22.10
2023-01-29T19:02:20.998Z,22.37
2023-01-29T19:04:49.230Z,22.67
2023-01-29T19:07:17.295Z,23.50
2023-01-29T19:09:45.732Z,22.20
2023-01-29T19:12:14.044Z,22.70
2023-01-29T19:14:42.257Z,20.97
2023-01-29T19:17:11.838Z,21.67
2023-01-29T19:19:40.102Z,20.97
2023-01-29T19:22:08.273Z,21.03
2023-01-29T19:24:39.126Z,21.03
2023-01-29T19:27:07.765Z,20.70
2023-01-29T19:29:35.800Z,21.00
2023-01-29T19:32:04.027Z,20.63
2023-01-29T19:34:33.497Z,21.13
2023-01-29T19:37:01.601Z,21.70
2023-01-29T19:39:33.722Z,21.97
2023-01-29T19:42:02.145Z,20.60
2023-01-29T19:44:30.305Z,22.03
2023-01-29T19:46:58.410Z,20.47
2023-01-29T19:49:27.561Z,21.67
2023-01-29T19:51:59.052Z,20.50
2023-01-29T19:54:29.561Z,22.37
2023-01-29T19:56:57.874Z,20.87
2023-01-29T19:59:26.036Z,22.00
2023-01-29T20:01:54.134Z,20.20
2023-01-29T20:04:22.226Z,20.60
2023-01-29T20:06:50.252Z,21.33
2023-01-29T20:09:19.777Z,20.70
2023-01-29T20:11:47.770Z,22.20
2023-01-29T20:14:15.844Z,21.70
2023-01-29T20:16:43.961Z,21.03
2023-01-29T20:19:14.095Z,19.63
2023-01-29T20:21:45.300Z,22.33
2023-01-29T20:24:14.331Z,22.30
2023-01-29T20:26:43.738Z,21.50
2023-01-29T20:29:11.790Z,21.90
2023-01-29T20:31:39.878Z,22.50
2023-01-29T20:34:07.976Z,21.30
2023-01-29T20:36:36.027Z,23.80
2023-01-29T20:39:04.035Z,23.40
2023-01-29T20:41:32.291Z,23.90
2023-01-29T20:44:01.705Z,22.97
2023-01-29T20:46:30.087Z,23.33
2023-01-29T20:48:58.098Z,20.87
2023-01-29T20:51:26.224Z,23.10
2023-01-29T20:53:55.513Z,22.87
2023-01-29T20:56:34.290Z,23.23
2023-01-29T20:59:08.149Z,23.70
2023-01-29T21:01:36.472Z,22.30
2023-01-29T21:04:04.570Z,23.37
2023-01-29T21:06:32.692Z,22.90
2023-01-29T21:09:00.775Z,22.10
2023-01-29T21:11:28.888Z,22.30
2023-01-29T21:13:57.924Z,23.40
2023-01-29T21:16:27.515Z,21.77
2023-01-29T21:18:59.196Z,21.73
2023-01-29T21:21:27.352Z,21.83
2023-01-29T21:23:55.838Z,22.83
2023-01-29T21:26:24.384Z,22.57
2023-01-29T21:28:52.498Z,21.07
2023-01-29T21:31:20.731Z,22.93
2023-01-29T21:33:50.270Z,23.67
2023-01-29T21:36:18.314Z,23.00
2023-01-29T21:38:46.445Z,22.73
2023-01-29T21:41:14.475Z,23.83
2023-01-29T21:43:41.670Z,22.67
2023-01-29T21:46:12.529Z,23.73
2023-01-29T21:48:41.626Z,24.33
2023-01-29T21:51:11.034Z,22.90
2023-01-29T21:53:39.052Z,24.27
2023-01-29T21:56:07.636Z,24.87
2023-01-29T21:58:35.673Z,24.33
2023-01-29T22:01:36.976Z,24.40
2023-01-29T22:03:51.899Z,23.70
2023-01-29T22:06:21.348Z,25.27
2023-01-29T22:08:50.014Z,25.33
2023-01-29T22:11:18.372Z,24.93
2023-01-29T22:13:46.949Z,24.37
2023-01-29T22:16:14.980Z,25.37
2023-01-29T22:18:43.078Z,24.93
2023-01-29T22:21:11.107Z,24.47
2023-01-29T22:23:40.574Z,26.13
2023-01-29T22:26:09.958Z,25.97
2023-01-29T22:28:38.104Z,24.43
2023-01-29T22:31:06.780Z,25.20
2023-01-29T22:33:35.196Z,26.27
2023-01-29T22:36:03.542Z,25.93
2023-01-29T22:38:32.038Z,26.03
2023-01-29T22:41:01.814Z,25.90
2023-01-29T22:43:30.242Z,25.30
2023-01-29T22:45:58.467Z,26.00
2023-01-29T22:48:26.947Z,26.30
2023-01-29T22:51:09.955Z,26.00
2023-01-29T22:53:38.809Z,26.47
2023-01-29T22:56:09.349Z,25.23
2023-01-29T22:58:37.676Z,27.47
2023-01-29T23:01:06.167Z,26.67
2023-01-29T23:03:34.337Z,26.83
2023-01-29T23:06:02.727Z,27.00
2023-01-29T23:08:30.938Z,26.97
2023-01-29T23:11:14.307Z,27.03
2023-01-29T23:13:46.343Z,27.77
2023-01-29T23:16:15.801Z,27.93
2023-01-29T23:18:43.898Z,27.03
2023-01-29T23:21:12.714Z,25.67
2023-01-29T23:23:40.783Z,26.90
2023-01-29T23:26:26.372Z,25.20
2023-01-29T23:28:55.997Z,23.70
2023-01-29T23:31:24.647Z,22.67
2023-01-29T23:33:52.909Z,22.83
2023-01-29T23:36:20.975Z,23.63
2023-01-29T23:38:49.099Z,22.13
2023-01-29T23:41:17.157Z,22.00
2023-01-29T23:43:45.179Z,21.80
2023-01-29T23:46:14.620Z,21.60
2023-01-29T23:48:42.887Z,22.03
2023-01-29T23:51:11.023Z,21.77
2023-01-29T23:53:39.230Z,22.83
2023-01-29T23:56:07.962Z,21.77
2023-01-29T23:58:36.043Z,21.87
